createdAt,value
2017-05-19T00:00:11.949Z,1004.6
2017-05-19T00:01:23.413Z,1004.61
2017-05-19T00:02:34.429Z,1004.6
2017-05-19T00:03:45.437Z,1004.61
2017-05-19T00:04:56.453Z,1004.56
2017-05-19T00:06:07.480Z,1004.54
2017-05-19T00:07:18.950Z,1004.52
2017-05-19T00:08:29.960Z,1004.52
2017-05-19T00:09:40.979Z,1004.54
2017-05-19T00:10:52.203Z,1004.48
2017-05-19T00:12:03.216Z,1004.42
2017-05-19T00:13:14.475Z,1004.45
2017-05-19T00:14:25.486Z,1004.42
2017-05-19T00:15:36.499Z,1004.41
2017-05-19T00:16:47.508Z,1004.35
2017-05-19T00:17:58.730Z,1004.33
2017-05-19T00:19:09.793Z,1004.33
2017-05-19T00:20:20.803Z,1004.27
2017-05-19T00:21:32.015Z,1004.24
2017-05-19T00:22:43.023Z,1004.24
2017-05-19T00:23:54.048Z,1004.2
2017-05-19T00:25:05.318Z,1004.21
2017-05-19T00:26:16.336Z,1004.17
2017-05-19T00:27:27.556Z,1004.17
2017-05-19T00:28:38.583Z,1004.15
2017-05-19T00:29:49.597Z,1004.15
2017-05-19T00:31:00.660Z,1004.18
2017-05-19T00:32:11.669Z,1004.15
2017-05-19T00:33:22.877Z,1004.18
2017-05-19T00:34:34.102Z,1004.19
2017-05-19T00:35:45.111Z,1004.14
2017-05-19T00:36:56.173Z,1004.17
2017-05-19T00:38:07.385Z,1004.17
2017-05-19T00:39:18.414Z,1004.15
2017-05-19T00:40:29.432Z,1004.16
2017-05-19T00:41:40.445Z,1004.15
2017-05-19T00:42:51.579Z,1004.12
2017-05-19T00:44:02.798Z,1004.14
2017-05-19T00:45:13.819Z,1004.13
2017-05-19T00:46:24.829Z,1004.13
2017-05-19T00:47:35.855Z,1004.15
2017-05-19T00:48:46.922Z,1004.15
2017-05-19T00:49:57.941Z,1004.13
2017-05-19T00:51:08.950Z,1004.11
2017-05-19T00:52:19.971Z,1004.09
2017-05-19T00:53:30.993Z,1004.12
2017-05-19T00:54:42.065Z,1004.06
2017-05-19T00:55:53.085Z,1004.08
2017-05-19T00:57:04.091Z,1004.14
2017-05-19T00:58:15.104Z,1004.11
2017-05-19T00:59:26.121Z,1004.04
2017-05-19T01:00:37.130Z,1004.06
2017-05-19T01:01:48.150Z,1004.06
2017-05-19T01:02:59.174Z,1004.01
2017-05-19T01:04:10.259Z,1004.01
2017-05-19T01:05:21.336Z,1004.03
2017-05-19T01:06:32.359Z,1004.01
2017-05-19T01:07:43.578Z,1004.01
2017-05-19T01:08:54.597Z,1004
2017-05-19T01:10:05.607Z,1004
2017-05-19T01:11:16.880Z,1004
2017-05-19T01:12:27.891Z,1003.96
2017-05-19T01:13:38.896Z,1003.96
2017-05-19T01:14:49.923Z,1003.93
2017-05-19T01:16:00.934Z,1003.95
2017-05-19T01:17:11.990Z,1003.96
2017-05-19T01:18:23.219Z,1003.96
2017-05-19T01:19:34.228Z,1003.98
2017-05-19T01:20:45.438Z,1003.97
2017-05-19T01:21:56.455Z,1003.98
2017-05-19T01:23:07.527Z,1004
2017-05-19T01:24:18.536Z,1004
2017-05-19T01:25:29.544Z,1004.01
2017-05-19T01:26:40.550Z,1004
2017-05-19T01:27:51.575Z,1003.91
2017-05-19T01:29:02.829Z,1003.93
2017-05-19T01:30:13.843Z,1003.95
2017-05-19T01:31:24.858Z,1003.92
2017-05-19T01:32:35.877Z,1003.97
2017-05-19T01:33:47.084Z,1003.96
2017-05-19T01:34:58.143Z,1003.98
2017-05-19T01:36:09.177Z,1003.98
2017-05-19T01:37:20.190Z,1003.96
2017-05-19T01:38:31.220Z,1003.97
2017-05-19T01:39:42.237Z,1003.96
2017-05-19T01:40:53.254Z,1004
2017-05-19T01:42:04.273Z,1004.05
2017-05-19T01:43:15.297Z,1004
2017-05-19T01:44:26.310Z,1004.06
2017-05-19T01:45:37.394Z,1004.1
2017-05-19T01:46:48.401Z,1004.21
2017-05-19T01:47:59.421Z,1004.24
2017-05-19T01:49:10.453Z,1004.32
2017-05-19T01:50:21.487Z,1004.33
2017-05-19T01:51:32.553Z,1004.35
2017-05-19T01:52:43.576Z,1004.35
2017-05-19T01:53:54.607Z,1004.38
2017-05-19T01:55:05.623Z,1004.4
2017-05-19T01:56:16.646Z,1004.4
2017-05-19T01:57:27.722Z,1004.38
2017-05-19T01:58:38.806Z,1004.36
2017-05-19T01:59:50.028Z,1004.35
2017-05-19T02:01:01.054Z,1004.37
2017-05-19T02:02:12.062Z,1004.35
2017-05-19T02:03:23.130Z,1004.33
2017-05-19T02:04:34.364Z,1004.37
2017-05-19T02:05:45.391Z,1004.38
2017-05-19T02:06:56.415Z,1004.42
2017-05-19T02:08:07.438Z,1004.39
2017-05-19T02:09:18.500Z,1004.45
2017-05-19T02:10:29.506Z,1004.45
2017-05-19T02:11:40.537Z,1004.43
2017-05-19T02:12:51.542Z,1004.43
2017-05-19T02:14:02.564Z,1004.42
2017-05-19T02:15:13.640Z,1004.44
2017-05-19T02:16:24.641Z,1004.45
2017-05-19T02:17:35.860Z,1004.46
2017-05-19T02:18:47.079Z,1004.42
2017-05-19T02:19:58.098Z,1004.41
2017-05-19T02:21:09.159Z,1004.39
2017-05-19T02:22:20.177Z,1004.37
2017-05-19T02:23:31.190Z,1004.36
2017-05-19T02:24:42.213Z,1004.38
2017-05-19T02:25:53.227Z,1004.43
2017-05-19T02:27:04.297Z,1004.42
2017-05-19T02:28:15.313Z,1004.47
2017-05-19T02:29:26.338Z,1004.42
2017-05-19T02:30:37.357Z,1004.39
2017-05-19T02:31:48.362Z,1004.44
2017-05-19T02:32:59.427Z,1004.35
2017-05-19T02:34:10.437Z,1004.35
2017-05-19T02:35:21.667Z,1004.34
2017-05-19T02:36:32.685Z,1004.32
2017-05-19T02:37:43.708Z,1004.28
2017-05-19T02:38:54.775Z,1004.25
2017-05-19T02:40:05.785Z,1004.25
2017-05-19T02:41:16.860Z,1004.23
2017-05-19T02:42:28.076Z,1004.18
2017-05-19T02:43:39.340Z,1004.21
2017-05-19T02:44:50.610Z,1004.19
2017-05-19T02:46:01.664Z,1004.17
2017-05-19T02:47:12.679Z,1004.17
2017-05-19T02:48:23.901Z,1004.09
2017-05-19T02:49:35.163Z,1004.12
2017-05-19T02:50:46.174Z,1004.09
2017-05-19T02:51:57.187Z,1004.08
2017-05-19T02:53:08.206Z,1004.04
2017-05-19T02:54:19.427Z,1004.04
2017-05-19T02:55:30.504Z,1004.08
2017-05-19T02:56:41.719Z,1004.07
2017-05-19T02:57:52.730Z,1004.09
2017-05-19T02:59:03.950Z,1004.06
2017-05-19T03:00:14.973Z,1004.08
2017-05-19T03:01:26.443Z,1004.05
2017-05-19T03:02:37.659Z,1003.99
2017-05-19T03:03:48.672Z,1003.88
2017-05-19T03:04:59.686Z,1003.79
2017-05-19T03:06:10.695Z,1003.82
2017-05-19T03:07:21.759Z,1003.78
2017-05-19T03:08:32.787Z,1003.73
2017-05-19T03:09:44.016Z,1003.69
2017-05-19T03:10:55.085Z,1003.71
2017-05-19T03:12:06.099Z,1003.64
2017-05-19T03:13:17.170Z,1003.6
2017-05-19T03:14:28.188Z,1003.5
2017-05-19T03:15:39.403Z,1003.45
2017-05-19T03:16:50.627Z,1003.39
2017-05-19T03:18:01.644Z,1003.45
2017-05-19T03:19:12.695Z,1003.65
2017-05-19T03:20:23.715Z,1003.83
2017-05-19T03:21:34.998Z,1003.85
2017-05-19T03:22:46.221Z,1003.86
2017-05-19T03:23:57.235Z,1003.88
2017-05-19T03:25:08.712Z,1003.88
2017-05-19T03:26:19.722Z,1003.8
2017-05-19T03:27:30.927Z,1003.79
2017-05-19T03:28:41.949Z,1003.85
2017-05-19T03:29:52.965Z,1003.82
2017-05-19T03:31:04.239Z,1003.82
2017-05-19T03:32:15.245Z,1003.82
2017-05-19T03:33:26.269Z,1003.84
2017-05-19T03:34:37.342Z,1003.85
2017-05-19T03:35:48.352Z,1003.78
2017-05-19T03:36:59.419Z,1003.82
2017-05-19T03:38:10.437Z,1003.84
2017-05-19T03:39:21.456Z,1003.89
2017-05-19T03:40:32.470Z,1003.88
2017-05-19T03:41:43.482Z,1003.84
2017-05-19T03:42:54.538Z,1003.77
2017-05-19T03:44:05.564Z,1003.72
2017-05-19T03:45:16.592Z,1003.67
2017-05-19T03:46:27.604Z,1003.67
2017-05-19T03:47:38.623Z,1003.7
2017-05-19T03:48:49.895Z,1003.74
2017-05-19T03:50:00.898Z,1003.72
2017-05-19T03:51:11.905Z,1003.72
2017-05-19T03:52:23.134Z,1003.68
2017-05-19T03:53:34.154Z,1003.69
2017-05-19T03:54:45.226Z,1003.73
2017-05-19T03:55:56.254Z,1003.74
2017-05-19T03:57:07.256Z,1003.71
2017-05-19T03:58:18.264Z,1003.7
2017-05-19T03:59:29.491Z,1003.73
2017-05-19T04:00:40.511Z,1003.7
2017-05-19T04:01:51.530Z,1003.7
2017-05-19T04:03:02.761Z,1003.68
2017-05-19T04:04:13.771Z,1003.74
2017-05-19T04:05:24.831Z,1003.82
2017-05-19T04:06:35.846Z,1003.86
2017-05-19T04:07:46.896Z,1003.95
2017-05-19T04:08:57.932Z,1003.92
2017-05-19T04:10:09.147Z,1003.95
2017-05-19T04:11:20.412Z,1004.06
2017-05-19T04:12:31.424Z,1004.07
2017-05-19T04:13:42.514Z,1004.06
2017-05-19T04:14:53.536Z,1004.03
2017-05-19T04:16:04.545Z,1004.02
2017-05-19T04:17:15.612Z,1003.99
2017-05-19T04:18:26.622Z,1003.95
2017-05-19T04:19:37.631Z,1003.95
2017-05-19T04:20:48.853Z,1003.98
2017-05-19T04:21:59.887Z,1003.94
2017-05-19T04:23:10.944Z,1003.92
2017-05-19T04:24:21.958Z,1003.94
2017-05-19T04:25:32.976Z,1003.99
2017-05-19T04:26:44.013Z,1003.97
2017-05-19T04:27:55.024Z,1003.97
2017-05-19T04:29:06.088Z,1004.03
2017-05-19T04:30:17.514Z,1004.01
2017-05-19T04:31:28.535Z,1004.06
2017-05-19T04:32:39.553Z,1004.08
2017-05-19T04:33:50.578Z,1004.07
2017-05-19T04:35:01.842Z,1004.05
2017-05-19T04:36:13.057Z,1004.02
2017-05-19T04:37:24.068Z,1004
2017-05-19T04:38:35.084Z,1004
2017-05-19T04:39:46.516Z,1003.99
2017-05-19T04:40:57.744Z,1003.98
2017-05-19T04:42:08.753Z,1004.01
2017-05-19T04:43:19.960Z,1004
2017-05-19T04:44:30.987Z,1004.06
2017-05-19T04:45:42.050Z,1004.03
2017-05-19T04:46:53.057Z,1004.06
2017-05-19T04:48:04.289Z,1004.08
2017-05-19T04:49:15.304Z,1004.12
2017-05-19T04:50:26.307Z,1004.11
2017-05-19T04:51:37.368Z,1004.16
2017-05-19T04:52:48.390Z,1004.18
2017-05-19T04:53:59.405Z,1004.19
2017-05-19T04:55:10.409Z,1004.2
2017-05-19T04:56:21.409Z,1004.19
2017-05-19T04:57:32.467Z,1004.2
2017-05-19T04:58:43.701Z,1004.21
2017-05-19T04:59:54.719Z,1004.2
2017-05-19T05:01:05.742Z,1004.21
2017-05-19T05:02:16.963Z,1004.2
2017-05-19T05:03:28.025Z,1004.24
2017-05-19T05:04:39.044Z,1004.22
2017-05-19T05:05:50.056Z,1004.24
2017-05-19T05:07:01.065Z,1004.22
2017-05-19T05:08:12.086Z,1004.19
2017-05-19T05:09:23.151Z,1004.23
2017-05-19T05:10:34.180Z,1004.22
2017-05-19T05:11:45.193Z,1004.27
2017-05-19T05:12:56.213Z,1004.29
2017-05-19T05:14:07.238Z,1004.32
2017-05-19T05:15:18.358Z,1004.36
2017-05-19T05:16:29.369Z,1004.42
2017-05-19T05:17:40.390Z,1004.48
2017-05-19T05:18:51.408Z,1004.57
2017-05-19T05:20:02.438Z,1004.54
2017-05-19T05:21:13.497Z,1004.54
2017-05-19T05:22:24.503Z,1004.58
2017-05-19T05:23:35.515Z,1004.62
2017-05-19T05:24:46.529Z,1004.61
2017-05-19T05:25:57.550Z,1004.57
2017-05-19T05:27:08.616Z,1004.54
2017-05-19T05:28:19.642Z,1004.59
2017-05-19T05:29:30.705Z,1004.62
2017-05-19T05:30:41.720Z,1004.6
2017-05-19T05:31:52.732Z,1004.62
2017-05-19T05:33:03.806Z,1004.63
2017-05-19T05:34:14.833Z,1004.7
2017-05-19T05:35:25.853Z,1004.74
2017-05-19T05:36:37.057Z,1004.74
2017-05-19T05:37:48.070Z,1004.79
2017-05-19T05:38:59.146Z,1004.78
2017-05-19T05:40:10.363Z,1004.79
2017-05-19T05:41:21.587Z,1004.79
2017-05-19T05:42:32.593Z,1004.82
2017-05-19T05:43:43.620Z,1004.82
2017-05-19T05:44:54.680Z,1004.86
2017-05-19T05:46:05.721Z,1004.86
2017-05-19T05:47:16.736Z,1004.86
2017-05-19T05:48:27.755Z,1004.79
2017-05-19T05:49:38.980Z,1004.81
2017-05-19T05:50:49.990Z,1004.81
2017-05-19T05:52:01.008Z,1004.83
2017-05-19T05:53:12.062Z,1004.84
2017-05-19T05:54:23.077Z,1004.84
2017-05-19T05:55:34.147Z,1004.86
2017-05-19T05:56:45.159Z,1004.87
2017-05-19T05:57:56.167Z,1004.86
2017-05-19T05:59:07.179Z,1004.86
2017-05-19T06:00:18.206Z,1004.85
2017-05-19T06:01:29.277Z,1004.9
2017-05-19T06:02:40.301Z,1004.91
2017-05-19T06:03:51.510Z,1004.92
2017-05-19T06:05:02.516Z,1004.95
2017-05-19T06:06:13.730Z,1004.95
2017-05-19T06:07:24.818Z,1004.96
2017-05-19T06:08:35.829Z,1004.95
2017-05-19T06:09:46.852Z,1004.95
2017-05-19T06:10:57.878Z,1004.94
2017-05-19T06:12:08.953Z,1004.89
2017-05-19T06:13:20.016Z,1004.93
2017-05-19T06:14:31.026Z,1004.97
2017-05-19T06:15:42.247Z,1004.94
2017-05-19T06:16:53.250Z,1004.99
2017-05-19T06:18:04.467Z,1004.93
2017-05-19T06:19:15.529Z,1005.02
2017-05-19T06:20:26.549Z,1005.03
2017-05-19T06:21:37.562Z,1005.06
2017-05-19T06:22:48.583Z,1005.07
2017-05-19T06:23:59.606Z,1005.05
2017-05-19T06:25:10.871Z,1005.11
2017-05-19T06:26:21.890Z,1005.16
2017-05-19T06:27:32.911Z,1005.17
2017-05-19T06:28:43.920Z,1005.16
2017-05-19T06:29:55.134Z,1005.15
2017-05-19T06:31:06.397Z,1005.21
2017-05-19T06:32:17.421Z,1005.22
2017-05-19T06:33:28.446Z,1005.22
2017-05-19T06:34:39.456Z,1005.19
2017-05-19T06:35:50.506Z,1005.21
2017-05-19T06:37:01.573Z,1005.22
2017-05-19T06:38:12.580Z,1005.2
2017-05-19T06:39:23.600Z,1005.21
2017-05-19T06:40:34.608Z,1005.27
2017-05-19T06:41:45.622Z,1005.3
2017-05-19T06:42:56.690Z,1005.3
2017-05-19T06:44:07.918Z,1005.3
2017-05-19T06:45:18.976Z,1005.3
2017-05-19T06:46:29.981Z,1005.31
2017-05-19T06:47:41.000Z,1005.32
2017-05-19T06:48:52.061Z,1005.36
2017-05-19T06:50:03.067Z,1005.34
2017-05-19T06:51:14.285Z,1005.33
2017-05-19T06:52:25.298Z,1005.33
2017-05-19T06:53:36.309Z,1005.38
2017-05-19T06:54:47.386Z,1005.32
2017-05-19T06:55:58.420Z,1005.41
2017-05-19T06:57:09.438Z,1005.39
2017-05-19T06:58:20.496Z,1005.44
2017-05-19T06:59:31.523Z,1005.42
2017-05-19T07:00:42.543Z,1005.39
2017-05-19T07:01:53.552Z,1005.37
2017-05-19T07:03:04.561Z,1005.41
2017-05-19T07:04:15.576Z,1005.42
2017-05-19T07:05:26.851Z,1005.39
2017-05-19T07:06:37.876Z,1005.39
2017-05-19T07:07:48.890Z,1005.44
2017-05-19T07:08:59.903Z,1005.43
2017-05-19T07:10:11.112Z,1005.43
2017-05-19T07:11:22.377Z,1005.43
2017-05-19T07:12:33.393Z,1005.38
2017-05-19T07:13:44.426Z,1005.41
2017-05-19T07:14:55.433Z,1005.4
2017-05-19T07:16:06.441Z,1005.42
2017-05-19T07:17:17.492Z,1005.38
2017-05-19T07:18:28.504Z,1005.41
2017-05-19T07:19:39.520Z,1005.42
2017-05-19T07:20:50.539Z,1005.43
2017-05-19T07:22:01.555Z,1005.39
2017-05-19T07:23:12.623Z,1005.39
2017-05-19T07:24:23.857Z,1005.37
2017-05-19T07:25:34.873Z,1005.4
2017-05-19T07:26:45.893Z,1005.46
2017-05-19T07:27:57.102Z,1005.41
2017-05-19T07:29:08.378Z,1005.47
2017-05-19T07:30:19.410Z,1005.49
2017-05-19T07:31:30.480Z,1005.54
2017-05-19T07:32:41.491Z,1005.54
2017-05-19T07:33:52.508Z,1005.6
2017-05-19T07:35:03.571Z,1005.57
2017-05-19T07:36:14.581Z,1005.57
2017-05-19T07:37:25.601Z,1005.55
2017-05-19T07:38:36.825Z,1005.52
2017-05-19T07:39:48.051Z,1005.53
2017-05-19T07:40:59.127Z,1005.56
2017-05-19T07:42:10.134Z,1005.55
2017-05-19T07:43:21.153Z,1005.59
2017-05-19T07:44:32.178Z,1005.53
2017-05-19T07:45:43.190Z,1005.55
2017-05-19T07:46:54.297Z,1005.58
2017-05-19T07:48:05.570Z,1005.64
2017-05-19T07:49:16.590Z,1005.62
2017-05-19T07:50:27.611Z,1005.64
2017-05-19T07:51:38.624Z,1005.7
2017-05-19T07:52:49.882Z,1005.74
2017-05-19T07:54:01.154Z,1005.78
2017-05-19T07:55:12.158Z,1005.7
2017-05-19T07:56:23.376Z,1005.8
2017-05-19T07:57:34.393Z,1005.83
2017-05-19T07:58:45.479Z,1005.8
2017-05-19T07:59:56.495Z,1005.82
2017-05-19T08:01:07.717Z,1005.84
2017-05-19T08:02:18.721Z,1005.89
2017-05-19T08:03:29.737Z,1005.88
2017-05-19T08:04:40.801Z,1005.88
2017-05-19T08:05:52.021Z,1005.9
2017-05-19T08:07:03.034Z,1006
2017-05-19T08:08:14.060Z,1005.94
2017-05-19T08:09:25.130Z,1006.03
2017-05-19T08:10:36.144Z,1006
2017-05-19T08:11:47.558Z,1005.98
2017-05-19T08:12:58.581Z,1006.05
2017-05-19T08:14:09.607Z,1006.04
2017-05-19T08:15:20.685Z,1006.01
2017-05-19T08:16:31.699Z,1006.1
2017-05-19T08:17:42.710Z,1006.05
2017-05-19T08:18:53.933Z,1006.12
2017-05-19T08:20:05.131Z,1006.12
2017-05-19T08:21:16.206Z,1006.17
2017-05-19T08:22:27.223Z,1006.15
2017-05-19T08:23:38.442Z,1006.17
2017-05-19T08:24:49.496Z,1006.16
2017-05-19T08:26:00.519Z,1006.21
2017-05-19T08:27:11.786Z,1006.2
2017-05-19T08:28:22.801Z,1006.2
2017-05-19T08:29:33.830Z,1006.23
2017-05-19T08:30:44.845Z,1006.24
2017-05-19T08:31:55.854Z,1006.26
2017-05-19T08:33:06.915Z,1006.25
2017-05-19T08:34:17.939Z,1006.26
2017-05-19T08:35:28.951Z,1006.27
2017-05-19T08:36:40.166Z,1006.32
2017-05-19T08:37:51.383Z,1006.36
2017-05-19T08:39:02.642Z,1006.33
2017-05-19T08:40:13.869Z,1006.39
2017-05-19T08:41:24.867Z,1006.41
2017-05-19T08:42:35.891Z,1006.4
2017-05-19T08:43:46.898Z,1006.45
2017-05-19T08:44:58.161Z,1006.44
2017-05-19T08:46:09.184Z,1006.52
2017-05-19T08:47:20.203Z,1006.51
2017-05-19T08:48:31.203Z,1006.52
2017-05-19T08:49:42.217Z,1006.51
2017-05-19T08:50:53.234Z,1006.52
2017-05-19T08:52:04.239Z,1006.55
2017-05-19T08:53:15.251Z,1006.55
2017-05-19T08:54:26.470Z,1006.59
2017-05-19T08:55:37.730Z,1006.56
2017-05-19T08:56:48.748Z,1006.61
2017-05-19T08:57:59.751Z,1006.6
2017-05-19T08:59:10.767Z,1006.62
2017-05-19T09:00:22.190Z,1006.68
2017-05-19T09:01:33.455Z,1006.71
2017-05-19T09:02:44.860Z,1006.63
2017-05-19T09:03:55.877Z,1006.65
2017-05-19T09:05:06.936Z,1006.75
2017-05-19T09:06:17.948Z,1006.73
2017-05-19T09:07:29.018Z,1006.74
2017-05-19T09:08:40.245Z,1006.73
2017-05-19T09:09:51.265Z,1006.72
2017-05-19T09:11:02.269Z,1006.74
2017-05-19T09:12:13.494Z,1006.7
2017-05-19T09:13:24.551Z,1006.66
2017-05-19T09:14:35.579Z,1006.7
2017-05-19T09:15:46.614Z,1006.77
2017-05-19T09:16:57.630Z,1006.73
2017-05-19T09:18:08.639Z,1006.75
2017-05-19T09:19:19.691Z,1006.72
2017-05-19T09:20:31.118Z,1006.71
2017-05-19T09:21:42.132Z,1006.64
2017-05-19T09:22:53.143Z,1006.65
2017-05-19T09:24:04.347Z,1006.56
2017-05-19T09:25:15.617Z,1006.57
2017-05-19T09:26:26.843Z,1006.56
2017-05-19T09:27:38.050Z,1006.48
2017-05-19T09:28:49.067Z,1006.48
2017-05-19T09:30:00.073Z,1006.47
2017-05-19T09:31:11.140Z,1006.43
2017-05-19T09:32:22.160Z,1006.42
2017-05-19T09:33:33.179Z,1006.39
2017-05-19T09:34:44.189Z,1006.31
2017-05-19T09:35:55.262Z,1006.28
2017-05-19T09:37:06.323Z,1006.3
2017-05-19T09:38:17.344Z,1006.29
2017-05-19T09:39:28.367Z,1006.33
2017-05-19T09:40:39.373Z,1006.28
2017-05-19T09:41:50.382Z,1006.32
2017-05-19T09:43:01.439Z,1006.32
2017-05-19T09:44:12.469Z,1006.33
2017-05-19T09:45:23.483Z,1006.32
2017-05-19T09:46:34.500Z,1006.35
2017-05-19T09:47:45.509Z,1006.37
2017-05-19T09:48:56.565Z,1006.38
2017-05-19T09:50:07.600Z,1006.38
2017-05-19T09:51:18.610Z,1006.43
2017-05-19T09:52:29.629Z,1006.41
2017-05-19T09:53:40.651Z,1006.45
2017-05-19T09:54:51.915Z,1006.45
2017-05-19T09:56:02.928Z,1006.45
2017-05-19T09:57:13.940Z,1006.46
2017-05-19T09:58:24.950Z,1006.48
2017-05-19T09:59:36.001Z,1006.47
2017-05-19T10:00:47.029Z,1006.48
2017-05-19T10:01:58.039Z,1006.52
2017-05-19T10:03:09.256Z,1006.52
2017-05-19T10:04:20.268Z,1006.5
2017-05-19T10:05:31.325Z,1006.52
2017-05-19T10:06:42.543Z,1006.52
2017-05-19T10:07:53.559Z,1006.57
2017-05-19T10:09:04.579Z,1006.56
2017-05-19T10:10:15.793Z,1006.55
2017-05-19T10:11:27.067Z,1006.51
2017-05-19T10:12:38.273Z,1006.48
2017-05-19T10:13:49.283Z,1006.44
2017-05-19T10:15:00.286Z,1006.5
2017-05-19T10:16:11.297Z,1006.47
2017-05-19T10:17:22.374Z,1006.54
2017-05-19T10:18:33.387Z,1006.56
2017-05-19T10:19:44.405Z,1006.54
2017-05-19T10:20:55.628Z,1006.6
2017-05-19T10:22:06.641Z,1006.63
2017-05-19T10:23:17.703Z,1006.65
2017-05-19T10:24:28.717Z,1006.68
2017-05-19T10:25:39.738Z,1006.64
2017-05-19T10:26:50.953Z,1006.57
2017-05-19T10:28:02.019Z,1006.61
2017-05-19T10:29:13.091Z,1006.6
2017-05-19T10:30:24.326Z,1006.57
2017-05-19T10:31:35.343Z,1006.58
2017-05-19T10:32:46.360Z,1006.65
2017-05-19T10:33:57.375Z,1006.6
2017-05-19T10:35:08.430Z,1006.59
2017-05-19T10:36:19.444Z,1006.63
2017-05-19T10:37:30.465Z,1006.64
2017-05-19T10:38:41.484Z,1006.67
2017-05-19T10:39:52.504Z,1006.62
2017-05-19T10:41:03.563Z,1006.56
2017-05-19T10:42:14.590Z,1006.61
2017-05-19T10:43:25.801Z,1006.59
2017-05-19T10:44:37.025Z,1006.52
2017-05-19T10:45:48.247Z,1006.5
2017-05-19T10:46:59.318Z,1006.49
2017-05-19T10:48:10.316Z,1006.49
2017-05-19T10:49:21.540Z,1006.46
2017-05-19T10:50:32.566Z,1006.53
2017-05-19T10:51:43.579Z,1006.53
2017-05-19T10:52:54.650Z,1006.51
2017-05-19T10:54:05.675Z,1006.47
2017-05-19T10:55:16.693Z,1006.47
2017-05-19T10:56:27.708Z,1006.5
2017-05-19T10:57:38.709Z,1006.51
2017-05-19T10:58:49.772Z,1006.46
2017-05-19T11:00:00.830Z,1006.49
2017-05-19T11:01:11.843Z,1006.44
2017-05-19T11:02:22.854Z,1006.41
2017-05-19T11:03:33.869Z,1006.41
2017-05-19T11:04:44.933Z,1006.37
2017-05-19T11:05:55.948Z,1006.4
2017-05-19T11:07:06.963Z,1006.35
2017-05-19T11:08:17.979Z,1006.32
2017-05-19T11:09:29.196Z,1006.32
2017-05-19T11:10:40.210Z,1006.34
2017-05-19T11:11:51.230Z,1006.26
2017-05-19T11:13:02.245Z,1006.31
2017-05-19T11:14:13.266Z,1006.34
2017-05-19T11:15:24.322Z,1006.36
2017-05-19T11:16:35.342Z,1006.37
2017-05-19T11:17:46.573Z,1006.42
2017-05-19T11:18:57.788Z,1006.35
2017-05-19T11:20:08.807Z,1006.37
2017-05-19T11:21:20.074Z,1006.27
2017-05-19T11:22:31.074Z,1006.22
2017-05-19T11:23:42.099Z,1006.16
2017-05-19T11:24:53.123Z,1006.15
2017-05-19T11:26:04.142Z,1006.22
2017-05-19T11:27:15.398Z,1006.24
2017-05-19T11:28:26.415Z,1006.28
2017-05-19T11:29:37.444Z,1006.35
2017-05-19T11:30:48.465Z,1006.38
2017-05-19T11:31:59.486Z,1006.39
2017-05-19T11:33:10.555Z,1006.46
2017-05-19T11:34:21.554Z,1006.53
2017-05-19T11:35:32.578Z,1006.5
2017-05-19T11:36:43.587Z,1006.54
2017-05-19T11:37:54.610Z,1006.54
2017-05-19T11:39:05.663Z,1006.58
2017-05-19T11:40:16.671Z,1006.56
2017-05-19T11:41:27.889Z,1006.54
2017-05-19T11:42:38.900Z,1006.55
2017-05-19T11:43:49.909Z,1006.56
2017-05-19T11:45:00.973Z,1006.55
2017-05-19T11:46:11.984Z,1006.55
2017-05-19T11:47:23.071Z,1006.52
2017-05-19T11:48:34.088Z,1006.52
2017-05-19T11:49:45.114Z,1006.55
2017-05-19T11:50:56.328Z,1006.6
2017-05-19T11:52:07.543Z,1006.67
2017-05-19T11:53:18.962Z,1006.69
2017-05-19T11:54:29.986Z,1006.71
2017-05-19T11:55:41.450Z,1006.75
2017-05-19T11:56:52.458Z,1006.8
2017-05-19T11:58:03.666Z,1006.82
2017-05-19T11:59:14.674Z,1006.88
2017-05-19T12:00:25.698Z,1006.91
2017-05-19T12:01:36.758Z,1006.97
2017-05-19T12:02:47.785Z,1006.96
2017-05-19T12:03:58.804Z,1006.96
2017-05-19T12:05:10.023Z,1006.9
2017-05-19T12:06:21.024Z,1006.88
2017-05-19T12:07:32.078Z,1006.93
2017-05-19T12:08:43.295Z,1006.94
2017-05-19T12:09:54.306Z,1007
2017-05-19T12:11:05.323Z,1007.04
2017-05-19T12:12:16.331Z,1007.05
2017-05-19T12:13:27.405Z,1007.06
2017-05-19T12:14:38.415Z,1007.11
2017-05-19T12:15:49.430Z,1007.11
2017-05-19T12:17:01.030Z,1007.15
2017-05-19T12:18:12.233Z,1007.13
2017-05-19T12:19:23.310Z,1007.15
2017-05-19T12:20:34.523Z,1007.11
2017-05-19T12:21:45.540Z,1007.16
2017-05-19T12:22:56.609Z,1007.13
2017-05-19T12:24:07.626Z,1007.06
2017-05-19T12:25:18.690Z,1007.04
2017-05-19T12:26:29.702Z,1007.05
2017-05-19T12:27:40.713Z,1007.07
2017-05-19T12:28:51.732Z,1007.05
2017-05-19T12:30:02.737Z,1007.06
2017-05-19T12:31:13.790Z,1007.08
2017-05-19T12:32:24.797Z,1007.11
2017-05-19T12:33:35.822Z,1007.14
2017-05-19T12:34:46.829Z,1007.12
2017-05-19T12:35:58.055Z,1007.2
2017-05-19T12:37:09.131Z,1007.18
2017-05-19T12:38:20.188Z,1007.25
2017-05-19T12:39:31.210Z,1007.27
2017-05-19T12:40:42.238Z,1007.23
2017-05-19T12:41:53.458Z,1007.31
2017-05-19T12:43:04.529Z,1007.36
2017-05-19T12:44:15.532Z,1007.38
2017-05-19T12:45:26.557Z,1007.4
2017-05-19T12:46:37.617Z,1007.4
2017-05-19T12:47:48.627Z,1007.43
2017-05-19T12:48:59.888Z,1007.42
2017-05-19T12:50:10.903Z,1007.43
2017-05-19T12:51:21.923Z,1007.42
2017-05-19T12:52:32.941Z,1007.4
2017-05-19T12:53:43.960Z,1007.36
2017-05-19T12:54:55.219Z,1007.32
2017-05-19T12:56:06.433Z,1007.28
2017-05-19T12:57:17.446Z,1007.22
2017-05-19T12:58:28.449Z,1007.17
2017-05-19T12:59:39.454Z,1007.17
2017-05-19T13:00:50.477Z,1007.14
2017-05-19T13:02:01.494Z,1007.17
2017-05-19T13:03:12.699Z,1007.2
2017-05-19T13:04:23.714Z,1007.2
2017-05-19T13:05:34.790Z,1007.18
2017-05-19T13:06:45.805Z,1007.24
2017-05-19T13:07:56.810Z,1007.33
2017-05-19T13:09:07.835Z,1007.35
2017-05-19T13:10:18.854Z,1007.43
2017-05-19T13:11:29.906Z,1007.47
2017-05-19T13:12:41.315Z,1007.49
2017-05-19T13:13:52.327Z,1007.44
2017-05-19T13:15:03.547Z,1007.42
2017-05-19T13:16:14.557Z,1007.42
2017-05-19T13:17:25.611Z,1007.44
2017-05-19T13:18:36.618Z,1007.45
2017-05-19T13:19:47.644Z,1007.46
2017-05-19T13:20:58.852Z,1007.48
2017-05-19T13:22:09.870Z,1007.43
2017-05-19T13:23:20.949Z,1007.44
2017-05-19T13:24:31.964Z,1007.36
2017-05-19T13:25:42.965Z,1007.41
2017-05-19T13:26:53.988Z,1007.34
2017-05-19T13:28:04.997Z,1007.26
2017-05-19T13:29:16.067Z,1007.13
2017-05-19T13:30:27.083Z,1007.13
2017-05-19T13:31:38.101Z,1007.11
2017-05-19T13:32:49.119Z,1007.12
2017-05-19T13:34:00.129Z,1007.18
2017-05-19T13:35:11.200Z,1007.21
2017-05-19T13:36:22.219Z,1007.22
2017-05-19T13:37:33.231Z,1007.24
2017-05-19T13:38:44.244Z,1007.29
2017-05-19T13:39:55.269Z,1007.3
2017-05-19T13:41:06.330Z,1007.28
2017-05-19T13:42:17.340Z,1007.3
2017-05-19T13:43:28.363Z,1007.27
2017-05-19T13:44:39.579Z,1007.3
2017-05-19T13:45:50.657Z,1007.34
2017-05-19T13:47:01.714Z,1007.32
2017-05-19T13:48:12.735Z,1007.33
2017-05-19T13:49:23.948Z,1007.45
2017-05-19T13:50:34.997Z,1007.45
2017-05-19T13:51:46.013Z,1007.42
2017-05-19T13:52:57.088Z,1007.5
2017-05-19T13:54:08.111Z,1007.5
2017-05-19T13:55:19.114Z,1007.53
2017-05-19T13:56:30.551Z,1007.53
2017-05-19T13:57:41.568Z,1007.52
2017-05-19T13:58:52.631Z,1007.51
2017-05-19T14:00:03.637Z,1007.52
2017-05-19T14:01:14.646Z,1007.56
2017-05-19T14:02:25.651Z,1007.6
2017-05-19T14:03:36.673Z,1007.61
2017-05-19T14:04:47.745Z,1007.59
2017-05-19T14:05:58.761Z,1007.61
2017-05-19T14:07:09.796Z,1007.61
2017-05-19T14:08:20.814Z,1007.64
2017-05-19T14:09:31.821Z,1007.69
2017-05-19T14:10:42.831Z,1007.68
2017-05-19T14:11:53.854Z,1007.71
2017-05-19T14:13:04.869Z,1007.67
2017-05-19T14:14:16.139Z,1007.67
2017-05-19T14:15:27.409Z,1007.68
2017-05-19T14:16:38.625Z,1007.72
2017-05-19T14:17:49.633Z,1007.73
2017-05-19T14:19:00.839Z,1007.74
2017-05-19T14:20:11.852Z,1007.78
2017-05-19T14:21:22.924Z,1007.85
2017-05-19T14:22:34.141Z,1007.87
2017-05-19T14:23:45.149Z,1007.88